Terminal Aerodrome Forecast
Issued by NWS

Home | Current Version | Previous Version | Text Only | Print | Product List | Glossary Off
Versions: 1 2 3 4 5 6 7 8 9 10 11 12 13 14 15 16 17 18 19 20 21 22 23

000
FTUS43 KGRB 271945 AAA
TAFATW
TAF AMD
KATW 271945Z 2720/2818 08007KT P6SM VCSH BKN035 OVC060
      TEMPO 2722/2802 2SM -SHRA SCT020 OVC030
     FM280200 15005KT 4SM BR VCSH BKN020 OVC030
      TEMPO 2802/2806 2SM -SHRA BR OVC020
     FM280600 15005KT 3SM BR VCSH OVC015
     FM281500 18010G16KT P6SM VCSH BKN030=

USA.gov is the U.S. government's official web portal to all federal, state and local government web resources and services.